Report METAR

 

LIBV - Gioia Del Colle, Italy
Distanza dalla stazione: SSE 15km
Dati ricevuti: 26/06/2019 12:55
Poche nubi
Poche nubi
 Vento da N
Vento: N 24 km/h
Temperatura: 29°C
Indice di Calore: 29°C
P.to Rugiada: 17°C
Umidità: 48%
Nuvole: Poche nubi
Visibilità: 10 km
Dettagli nuvole: Poche nubi 914 m
2019/06/26 10:55 LIBV 261055Z 01013KT 330V050 9999 FEW030 29/17 Q////
LIBD - Bari/Palese Macc, Italy
Distanza dalla stazione: NNO 26km
Dati ricevuti: 26/06/2019 13:20
Sereno
Sereno
 Vento da N
Vento: N 20 km/h
Temperatura: 29°C
Indice di Calore: 31°C
P.to Rugiada: 21°C
Umidità: 62%
Barometro: 1020 hPa
Riassunto: Sereno
Visibilità: superiore a 10 km
2019/06/26 11:20 LIBD 261120Z 01011KT CAVOK 29/21 Q1020
 
LIBH - Marina Di Ginosa, Italy
Distanza dalla stazione: S 53km
Dati ricevuti: 26/06/2019 12:55
Poche nubi
Poche nubi
 Vento da Variabile
Vento: Variabile 15 km/h
Temperatura: 36°C
Indice di Calore: 40°C
P.to Rugiada: 21°C
Umidità: 42%
Barometro: 1017 hPa
Nuvole: Poche nubi
Visibilità: 10 km
Dettagli nuvole: Poche nubi 762 m
2019/06/26 10:55 LIBH 261055Z VRB08KT 9999 FEW025TCU 36/21 Q1017 RMK FEW QUK 2 QUL 1 NE VIS MAR 25 KM VIS MIN 9999
LIBG - Grottaglie(Civ/A, Italy
Distanza dalla stazione: SE 61km
Dati ricevuti: 26/06/2019 12:50
Sereno
Sereno
 Vento da NNE
Vento: NNE 26 km/h
Temperatura: 32°C
Indice di Calore: 34°C
P.to Rugiada: 19°C
Umidità: 46%
Barometro: 1017 hPa
Riassunto: Sereno
Visibilità: superiore a 10 km
2019/06/26 10:50 LIBG 261050Z 02014KT CAVOK 32/19 Q1017
 
LIBR - Brindisi/Casale, Italy
Distanza dalla stazione: ESE 96km
Dati ricevuti: 26/06/2019 13:20
Sereno
Sereno
 Vento da NNO
Vento: NNO 24 km/h
Temperatura: 28°C
Indice di Calore: 30°C
P.to Rugiada: 22°C
Umidità: 70%
Barometro: 1018 hPa
Riassunto: Sereno
Visibilità: superiore a 10 km
2019/06/26 11:20 LIBR 261120Z 33013KT CAVOK 28/22 Q1018
LIBA - Amendola (it-Afb, Italy
Distanza dalla stazione: NO 118km
Dati ricevuti: 26/06/2019 12:55
Poche nubi
Poche nubi
 Vento da NE
Vento: NE 15 km/h
Temperatura: 33°C
P.to Rugiada: 17°C
Umidità: 38%
Barometro: 1019 hPa
Nuvole: Poche nubi
Visibilità: 10 km
Dettagli nuvole: Poche nubi 1829 m
2019/06/26 10:55 LIBA 261055Z 04008KT 9999 FEW060 33/17 Q1019
 
LIBF - Foggia/Gino Lisa, Italy
Distanza dalla stazione: ONO 126km
Dati ricevuti: 26/06/2019 12:50
Sereno
Sereno
 Vento da NNO
Vento: NNO 31 km/h, Raffica: 50 km/h
Temperatura: 32°C
Indice di Calore: 33°C
P.to Rugiada: 18°C
Umidità: 43%
Barometro: 1020 hPa
Riassunto: Sereno
Visibilità: superiore a 10 km
2019/06/26 10:50 LIBF 261050Z 34017G27KT CAVOK 32/18 Q1020
LIBN - Lecce (it-Afb), Italy
Distanza dalla stazione: SE 132km
Dati ricevuti: 26/06/2019 12:55
Sereno
Sereno
 Vento da NNE
Vento: NNE 28 km/h
Temperatura: 31°C
Indice di Calore: 33°C
P.to Rugiada: 20°C
Umidità: 52%
Barometro: 1017 hPa
Riassunto: Sereno
Visibilità: superiore a 10 km
2019/06/26 10:55 LIBN 261055Z 02015KT CAVOK 31/20 Q1017 RMK SCT SCT200 VIS MIN 9999 WIND THR14 02014KT WIND THR32 02013KT BLU